sensor_id;sensor_type;location;lat;lon;timestamp;P1;durP1;ratioP1;P2;durP2;ratioP2
3359;SDS011;1693;49.602;11.046;2023-11-19T00:00:27;3.83;;;2.23;;
3359;SDS011;1693;49.602;11.046;2023-11-19T00:02:54;2.40;;;2.20;;
3359;SDS011;1693;49.602;11.046;2023-11-19T00:05:22;3.67;;;2.20;;
3359;SDS011;1693;49.602;11.046;2023-11-19T00:07:50;3.93;;;3.20;;
3359;SDS011;1693;49.602;11.046;2023-11-19T00:10:19;2.93;;;2.07;;
3359;SDS011;1693;49.602;11.046;2023-11-19T00:12:47;2.80;;;1.83;;
3359;SDS011;1693;49.602;11.046;2023-11-19T00:15:16;4.37;;;2.50;;
3359;SDS011;1693;49.602;11.046;2023-11-19T00:17:47;3.13;;;2.83;;
3359;SDS011;1693;49.602;11.046;2023-11-19T00:20:16;4.40;;;2.50;;
3359;SDS011;1693;49.602;11.046;2023-11-19T00:22:49;4.50;;;3.00;;
3359;SDS011;1693;49.602;11.046;2023-11-19T00:25:17;2.10;;;1.90;;
3359;SDS011;1693;49.602;11.046;2023-11-19T00:27:47;3.30;;;2.30;;
3359;SDS011;1693;49.602;11.046;2023-11-19T00:30:17;1.87;;;1.43;;
3359;SDS011;1693;49.602;11.046;2023-11-19T00:32:46;3.20;;;2.67;;
3359;SDS011;1693;49.602;11.046;2023-11-19T00:35:16;1.90;;;1.80;;
3359;SDS011;1693;49.602;11.046;2023-11-19T00:37:44;2.20;;;1.90;;
3359;SDS011;1693;49.602;11.046;2023-11-19T00:40:19;3.10;;;2.10;;
3359;SDS011;1693;49.602;11.046;2023-11-19T00:42:49;2.53;;;2.13;;
3359;SDS011;1693;49.602;11.046;2023-11-19T00:45:16;2.90;;;2.70;;
3359;SDS011;1693;49.602;11.046;2023-11-19T00:47:44;3.40;;;2.47;;
3359;SDS011;1693;49.602;11.046;2023-11-19T00:50:13;2.43;;;2.23;;
3359;SDS011;1693;49.602;11.046;2023-11-19T00:52:42;2.50;;;2.27;;
3359;SDS011;1693;49.602;11.046;2023-11-19T00:55:20;4.47;;;2.30;;
3359;SDS011;1693;49.602;11.046;2023-11-19T00:57:50;4.10;;;2.33;;
3359;SDS011;1693;49.602;11.046;2023-11-19T01:00:28;3.07;;;2.33;;
3359;SDS011;1693;49.602;11.046;2023-11-19T01:02:59;3.20;;;2.37;;
3359;SDS011;1693;49.602;11.046;2023-11-19T01:05:26;3.13;;;2.83;;
3359;SDS011;1693;49.602;11.046;2023-11-19T01:07:55;2.27;;;2.07;;
3359;SDS011;1693;49.602;11.046;2023-11-19T01:10:25;3.10;;;2.80;;
3359;SDS011;1693;49.602;11.046;2023-11-19T01:12:55;4.67;;;2.20;;
3359;SDS011;1693;49.602;11.046;2023-11-19T01:15:25;3.60;;;2.80;;
3359;SDS011;1693;49.602;11.046;2023-11-19T01:17:55;4.53;;;2.60;;
3359;SDS011;1693;49.602;11.046;2023-11-19T01:20:24;2.33;;;1.83;;
3359;SDS011;1693;49.602;11.046;2023-11-19T01:22:51;2.00;;;1.63;;
3359;SDS011;1693;49.602;11.046;2023-11-19T01:25:20;3.77;;;2.13;;
3359;SDS011;1693;49.602;11.046;2023-11-19T01:27:52;2.33;;;2.13;;
3359;SDS011;1693;49.602;11.046;2023-11-19T01:30:21;3.97;;;2.20;;
3359;SDS011;1693;49.602;11.046;2023-11-19T01:32:51;1.93;;;1.73;;
3359;SDS011;1693;49.602;11.046;2023-11-19T01:35:19;2.80;;;2.30;;
3359;SDS011;1693;49.602;11.046;2023-11-19T01:37:49;3.07;;;2.40;;
3359;SDS011;1693;49.602;11.046;2023-11-19T01:40:20;2.13;;;1.93;;
3359;SDS011;1693;49.602;11.046;2023-11-19T01:42:52;3.70;;;3.10;;
3359;SDS011;1693;49.602;11.046;2023-11-19T01:45:25;3.53;;;1.80;;
3359;SDS011;1693;49.602;11.046;2023-11-19T01:47:57;2.90;;;2.60;;
3359;SDS011;1693;49.602;11.046;2023-11-19T01:50:26;3.53;;;3.23;;
3359;SDS011;1693;49.602;11.046;2023-11-19T01:52:56;2.93;;;2.50;;
3359;SDS011;1693;49.602;11.046;2023-11-19T01:55:24;3.83;;;2.90;;
3359;SDS011;1693;49.602;11.046;2023-11-19T01:57:57;3.03;;;2.20;;
3359;SDS011;1693;49.602;11.046;2023-11-19T02:00:30;2.87;;;2.57;;
3359;SDS011;1693;49.602;11.046;2023-11-19T02:03:00;4.30;;;3.00;;
3359;SDS011;1693;49.602;11.046;2023-11-19T02:05:28;2.43;;;1.90;;
3359;SDS011;1693;49.602;11.046;2023-11-19T02:07:57;3.10;;;2.53;;
3359;SDS011;1693;49.602;11.046;2023-11-19T02:10:28;5.70;;;3.17;;
3359;SDS011;1693;49.602;11.046;2023-11-19T02:13:03;3.43;;;2.43;;
3359;SDS011;1693;49.602;11.046;2023-11-19T02:15:31;3.40;;;2.70;;
3359;SDS011;1693;49.602;11.046;2023-11-19T02:20:41;2.30;;;1.80;;
3359;SDS011;1693;49.602;11.046;2023-11-19T02:23:08;2.77;;;1.80;;
3359;SDS011;1693;49.602;11.046;2023-11-19T02:25:36;3.13;;;2.50;;
3359;SDS011;1693;49.602;11.046;2023-11-19T02:28:09;2.70;;;2.50;;
3359;SDS011;1693;49.602;11.046;2023-11-19T02:30:42;2.73;;;1.77;;
3359;SDS011;1693;49.602;11.046;2023-11-19T02:33:11;3.43;;;2.67;;
3359;SDS011;1693;49.602;11.046;2023-11-19T02:35:41;2.27;;;2.03;;
3359;SDS011;1693;49.602;11.046;2023-11-19T02:38:08;3.03;;;2.67;;
3359;SDS011;1693;49.602;11.046;2023-11-19T02:40:37;3.37;;;2.70;;
3359;SDS011;1693;49.602;11.046;2023-11-19T02:43:07;3.10;;;2.67;;
3359;SDS011;1693;49.602;11.046;2023-11-19T02:45:34;2.17;;;1.97;;
3359;SDS011;1693;49.602;11.046;2023-11-19T02:48:04;2.77;;;2.20;;
3359;SDS011;1693;49.602;11.046;2023-11-19T02:50:32;6.63;;;2.20;;
3359;SDS011;1693;49.602;11.046;2023-11-19T02:53:01;3.20;;;2.50;;
3359;SDS011;1693;49.602;11.046;2023-11-19T02:55:29;2.37;;;1.87;;
3359;SDS011;1693;49.602;11.046;2023-11-19T02:58:03;3.10;;;2.07;;
3359;SDS011;1693;49.602;11.046;2023-11-19T03:00:51;2.63;;;2.07;;
3359;SDS011;1693;49.602;11.046;2023-11-19T03:03:22;2.97;;;2.47;;
3359;SDS011;1693;49.602;11.046;2023-11-19T03:05:56;4.00;;;2.87;;
3359;SDS011;1693;49.602;11.046;2023-11-19T03:08:24;6.07;;;2.23;;
3359;SDS011;1693;49.602;11.046;2023-11-19T03:10:52;2.83;;;2.50;;
3359;SDS011;1693;49.602;11.046;2023-11-19T03:13:20;2.90;;;2.70;;
3359;SDS011;1693;49.602;11.046;2023-11-19T03:15:52;2.33;;;2.00;;
3359;SDS011;1693;49.602;11.046;2023-11-19T03:18:24;3.17;;;2.80;;
3359;SDS011;1693;49.602;11.046;2023-11-19T03:20:52;2.47;;;2.27;;
3359;SDS011;1693;49.602;11.046;2023-11-19T03:23:20;3.30;;;2.07;;
3359;SDS011;1693;49.602;11.046;2023-11-19T03:25:48;3.10;;;1.90;;
3359;SDS011;1693;49.602;11.046;2023-11-19T03:28:18;3.63;;;2.40;;
3359;SDS011;1693;49.602;11.046;2023-11-19T03:30:48;2.93;;;2.50;;
3359;SDS011;1693;49.602;11.046;2023-11-19T03:33:19;2.83;;;2.20;;
3359;SDS011;1693;49.602;11.046;2023-11-19T03:35:47;2.83;;;2.50;;
3359;SDS011;1693;49.602;11.046;2023-11-19T03:38:18;5.00;;;3.20;;
3359;SDS011;1693;49.602;11.046;2023-11-19T03:40:48;2.97;;;2.47;;
3359;SDS011;1693;49.602;11.046;2023-11-19T03:43:17;3.30;;;2.23;;
3359;SDS011;1693;49.602;11.046;2023-11-19T03:45:49;3.70;;;2.97;;
3359;SDS011;1693;49.602;11.046;2023-11-19T03:48:17;4.53;;;3.00;;
3359;SDS011;1693;49.602;11.046;2023-11-19T03:50:46;7.73;;;3.00;;
3359;SDS011;1693;49.602;11.046;2023-11-19T03:53:15;3.67;;;2.30;;
3359;SDS011;1693;49.602;11.046;2023-11-19T03:55:46;4.23;;;3.00;;
3359;SDS011;1693;49.602;11.046;2023-11-19T03:58:15;3.53;;;2.07;;
3359;SDS011;1693;49.602;11.046;2023-11-19T04:00:49;2.30;;;1.57;;
3359;SDS011;1693;49.602;11.046;2023-11-19T04:03:18;3.63;;;2.73;;
3359;SDS011;1693;49.602;11.046;2023-11-19T04:05:46;3.63;;;3.27;;
3359;SDS011;1693;49.602;11.046;2023-11-19T04:08:15;2.90;;;2.60;;
3359;SDS011;1693;49.602;11.046;2023-11-19T04:10:47;2.83;;;2.53;;
3359;SDS011;1693;49.602;11.046;2023-11-19T04:13:14;4.50;;;3.70;;
3359;SDS011;1693;49.602;11.046;2023-11-19T04:15:42;3.30;;;3.00;;
3359;SDS011;1693;49.602;11.046;2023-11-19T04:18:11;3.43;;;2.73;;
3359;SDS011;1693;49.602;11.046;2023-11-19T04:20:38;4.60;;;2.90;;
3359;SDS011;1693;49.602;11.046;2023-11-19T04:23:07;3.53;;;2.83;;
3359;SDS011;1693;49.602;11.046;2023-11-19T04:25:34;2.70;;;2.17;;
3359;SDS011;1693;49.602;11.046;2023-11-19T04:28:02;4.70;;;3.60;;
3359;SDS011;1693;49.602;11.046;2023-11-19T04:30:31;4.10;;;2.83;;
3359;SDS011;1693;49.602;11.046;2023-11-19T04:33:00;3.83;;;3.40;;
3359;SDS011;1693;49.602;11.046;2023-11-19T04:35:33;1.97;;;1.73;;
3359;SDS011;1693;49.602;11.046;2023-11-19T04:38:02;1.70;;;1.60;;
3359;SDS011;1693;49.602;11.046;2023-11-19T04:40:30;2.43;;;2.23;;
3359;SDS011;1693;49.602;11.046;2023-11-19T04:42:59;2.33;;;2.00;;
3359;SDS011;1693;49.602;11.046;2023-11-19T04:45:27;2.60;;;2.40;;
3359;SDS011;1693;49.602;11.046;2023-11-19T04:47:58;4.37;;;3.00;;
3359;SDS011;1693;49.602;11.046;2023-11-19T04:50:28;5.47;;;3.30;;
3359;SDS011;1693;49.602;11.046;2023-11-19T04:52:58;4.10;;;3.47;;
3359;SDS011;1693;49.602;11.046;2023-11-19T04:55:25;4.00;;;3.60;;
3359;SDS011;1693;49.602;11.046;2023-11-19T04:57:53;5.30;;;3.50;;
3359;SDS011;1693;49.602;11.046;2023-11-19T05:00:21;4.40;;;2.83;;
3359;SDS011;1693;49.602;11.046;2023-11-19T05:02:48;4.70;;;2.90;;
3359;SDS011;1693;49.602;11.046;2023-11-19T05:05:19;5.23;;;3.33;;
3359;SDS011;1693;49.602;11.046;2023-11-19T05:07:49;5.33;;;4.10;;
3359;SDS011;1693;49.602;11.046;2023-11-19T05:10:19;3.00;;;2.17;;
3359;SDS011;1693;49.602;11.046;2023-11-19T05:12:47;3.03;;;2.73;;
3359;SDS011;1693;49.602;11.046;2023-11-19T05:15:16;3.03;;;1.70;;
3359;SDS011;1693;49.602;11.046;2023-11-19T05:17:47;3.60;;;2.43;;
3359;SDS011;1693;49.602;11.046;2023-11-19T05:20:15;4.50;;;3.47;;
3359;SDS011;1693;49.602;11.046;2023-11-19T05:22:42;3.03;;;2.40;;
3359;SDS011;1693;49.602;11.046;2023-11-19T05:25:11;3.97;;;2.93;;
3359;SDS011;1693;49.602;11.046;2023-11-19T05:27:43;3.80;;;3.03;;
3359;SDS011;1693;49.602;11.046;2023-11-19T05:30:13;4.57;;;2.93;;
3359;SDS011;1693;49.602;11.046;2023-11-19T05:32:40;5.30;;;3.70;;
3359;SDS011;1693;49.602;11.046;2023-11-19T05:35:08;4.10;;;2.80;;
3359;SDS011;1693;49.602;11.046;2023-11-19T05:37:35;4.17;;;2.70;;
3359;SDS011;1693;49.602;11.046;2023-11-19T05:40:02;3.03;;;2.30;;
3359;SDS011;1693;49.602;11.046;2023-11-19T05:42:38;4.47;;;3.50;;
3359;SDS011;1693;49.602;11.046;2023-11-19T05:45:07;3.83;;;3.50;;
3359;SDS011;1693;49.602;11.046;2023-11-19T05:47:36;4.70;;;2.80;;
3359;SDS011;1693;49.602;11.046;2023-11-19T05:50:04;6.87;;;4.57;;
3359;SDS011;1693;49.602;11.046;2023-11-19T05:52:32;6.20;;;3.90;;
3359;SDS011;1693;49.602;11.046;2023-11-19T05:54:59;3.80;;;2.80;;
3359;SDS011;1693;49.602;11.046;2023-11-19T05:57:29;4.43;;;2.80;;
3359;SDS011;1693;49.602;11.046;2023-11-19T05:59:56;4.43;;;3.03;;
3359;SDS011;1693;49.602;11.046;2023-11-19T06:02:25;5.13;;;4.20;;
3359;SDS011;1693;49.602;11.046;2023-11-19T06:04:56;6.80;;;3.90;;
3359;SDS011;1693;49.602;11.046;2023-11-19T06:07:23;6.70;;;3.90;;
3359;SDS011;1693;49.602;11.046;2023-11-19T06:09:51;2.37;;;2.17;;
3359;SDS011;1693;49.602;11.046;2023-11-19T06:12:18;3.63;;;2.80;;
3359;SDS011;1693;49.602;11.046;2023-11-19T06:14:45;4.40;;;1.90;;
3359;SDS011;1693;49.602;11.046;2023-11-19T06:17:12;4.37;;;2.97;;
3359;SDS011;1693;49.602;11.046;2023-11-19T06:19:41;6.30;;;3.60;;
3359;SDS011;1693;49.602;11.046;2023-11-19T06:22:08;3.90;;;3.00;;
3359;SDS011;1693;49.602;11.046;2023-11-19T06:24:36;7.40;;;4.40;;
3359;SDS011;1693;49.602;11.046;2023-11-19T06:27:03;4.13;;;3.50;;
3359;SDS011;1693;49.602;11.046;2023-11-19T06:29:30;5.27;;;3.20;;
3359;SDS011;1693;49.602;11.046;2023-11-19T06:31:57;5.70;;;3.50;;
3359;SDS011;1693;49.602;11.046;2023-11-19T06:34:25;6.93;;;3.33;;
3359;SDS011;1693;49.602;11.046;2023-11-19T06:36:53;3.23;;;2.30;;
3359;SDS011;1693;49.602;11.046;2023-11-19T06:39:20;5.07;;;3.60;;
3359;SDS011;1693;49.602;11.046;2023-11-19T06:41:47;6.63;;;3.60;;
3359;SDS011;1693;49.602;11.046;2023-11-19T06:44:14;5.77;;;3.87;;
3359;SDS011;1693;49.602;11.046;2023-11-19T06:46:42;4.40;;;2.97;;
3359;SDS011;1693;49.602;11.046;2023-11-19T06:49:09;8.53;;;3.87;;
3359;SDS011;1693;49.602;11.046;2023-11-19T06:51:38;3.50;;;2.67;;
3359;SDS011;1693;49.602;11.046;2023-11-19T06:54:10;4.00;;;3.60;;
3359;SDS011;1693;49.602;11.046;2023-11-19T06:56:37;6.13;;;4.50;;
3359;SDS011;1693;49.602;11.046;2023-11-19T06:59:06;4.00;;;3.10;;
3359;SDS011;1693;49.602;11.046;2023-11-19T07:01:34;6.20;;;3.93;;
3359;SDS011;1693;49.602;11.046;2023-11-19T07:04:02;7.10;;;4.40;;
3359;SDS011;1693;49.602;11.046;2023-11-19T07:06:34;7.37;;;4.73;;
3359;SDS011;1693;49.602;11.046;2023-11-19T07:09:01;4.80;;;2.93;;
3359;SDS011;1693;49.602;11.046;2023-11-19T07:11:36;7.37;;;3.90;;
3359;SDS011;1693;49.602;11.046;2023-11-19T07:14:04;4.80;;;3.63;;
3359;SDS011;1693;49.602;11.046;2023-11-19T07:16:31;5.37;;;2.93;;
3359;SDS011;1693;49.602;11.046;2023-11-19T07:18:59;5.17;;;3.70;;
3359;SDS011;1693;49.602;11.046;2023-11-19T07:21:26;8.50;;;4.70;;
3359;SDS011;1693;49.602;11.046;2023-11-19T07:23:54;7.43;;;5.10;;
3359;SDS011;1693;49.602;11.046;2023-11-19T07:26:21;5.63;;;3.73;;
3359;SDS011;1693;49.602;11.046;2023-11-19T07:28:50;3.93;;;3.30;;
3359;SDS011;1693;49.602;11.046;2023-11-19T07:31:20;6.20;;;4.03;;
3359;SDS011;1693;49.602;11.046;2023-11-19T07:33:50;7.33;;;5.60;;
3359;SDS011;1693;49.602;11.046;2023-11-19T07:36:17;7.13;;;4.47;;
3359;SDS011;1693;49.602;11.046;2023-11-19T07:38:45;25.87;;;13.83;;
3359;SDS011;1693;49.602;11.046;2023-11-19T07:41:12;8.33;;;4.83;;
3359;SDS011;1693;49.602;11.046;2023-11-19T07:43:40;5.47;;;3.47;;
3359;SDS011;1693;49.602;11.046;2023-11-19T07:46:13;4.87;;;4.10;;
3359;SDS011;1693;49.602;11.046;2023-11-19T07:48:40;4.87;;;3.33;;
3359;SDS011;1693;49.602;11.046;2023-11-19T07:51:08;3.20;;;2.50;;
3359;SDS011;1693;49.602;11.046;2023-11-19T07:53:37;6.33;;;3.80;;
3359;SDS011;1693;49.602;11.046;2023-11-19T07:56:05;3.57;;;3.00;;
3359;SDS011;1693;49.602;11.046;2023-11-19T07:58:33;6.40;;;3.83;;
3359;SDS011;1693;49.602;11.046;2023-11-19T08:01:00;5.77;;;3.17;;
3359;SDS011;1693;49.602;11.046;2023-11-19T08:03:32;6.27;;;4.20;;
3359;SDS011;1693;49.602;11.046;2023-11-19T08:06:00;4.20;;;2.80;;
3359;SDS011;1693;49.602;11.046;2023-11-19T08:08:27;6.53;;;3.33;;
3359;SDS011;1693;49.602;11.046;2023-11-19T08:10:59;6.30;;;3.60;;
3359;SDS011;1693;49.602;11.046;2023-11-19T08:13:27;5.77;;;3.40;;
3359;SDS011;1693;49.602;11.046;2023-11-19T08:15:55;6.53;;;3.30;;
3359;SDS011;1693;49.602;11.046;2023-11-19T08:18:23;3.90;;;2.90;;
3359;SDS011;1693;49.602;11.046;2023-11-19T08:20:51;4.30;;;3.90;;
3359;SDS011;1693;49.602;11.046;2023-11-19T08:23:19;4.80;;;3.43;;
3359;SDS011;1693;49.602;11.046;2023-11-19T08:25:46;3.50;;;2.57;;
3359;SDS011;1693;49.602;11.046;2023-11-19T08:28:13;8.10;;;4.77;;
3359;SDS011;1693;49.602;11.046;2023-11-19T08:30:42;3.47;;;2.47;;
3359;SDS011;1693;49.602;11.046;2023-11-19T08:33:13;5.10;;;3.10;;
3359;SDS011;1693;49.602;11.046;2023-11-19T08:35:40;3.50;;;1.73;;
3359;SDS011;1693;49.602;11.046;2023-11-19T08:38:09;4.03;;;2.93;;
3359;SDS011;1693;49.602;11.046;2023-11-19T08:40:36;4.83;;;3.63;;
3359;SDS011;1693;49.602;11.046;2023-11-19T08:43:04;6.03;;;4.07;;
3359;SDS011;1693;49.602;11.046;2023-11-19T08:45:31;4.87;;;3.37;;
3359;SDS011;1693;49.602;11.046;2023-11-19T08:48:01;6.57;;;3.13;;
3359;SDS011;1693;49.602;11.046;2023-11-19T08:50:28;4.30;;;3.03;;
3359;SDS011;1693;49.602;11.046;2023-11-19T08:52:56;4.23;;;3.53;;
3359;SDS011;1693;49.602;11.046;2023-11-19T08:55:25;4.70;;;3.40;;
3359;SDS011;1693;49.602;11.046;2023-11-19T08:57:52;13.07;;;7.60;;
3359;SDS011;1693;49.602;11.046;2023-11-19T09:00:20;4.87;;;4.03;;
3359;SDS011;1693;49.602;11.046;2023-11-19T09:02:47;2.30;;;2.10;;
3359;SDS011;1693;49.602;11.046;2023-11-19T09:05:14;2.43;;;2.23;;
3359;SDS011;1693;49.602;11.046;2023-11-19T09:07:43;3.40;;;2.40;;
3359;SDS011;1693;49.602;11.046;2023-11-19T09:10:10;2.27;;;1.87;;
3359;SDS011;1693;49.602;11.046;2023-11-19T09:12:40;1.53;;;1.00;;
3359;SDS011;1693;49.602;11.046;2023-11-19T09:15:10;1.23;;;1.13;;
3359;SDS011;1693;49.602;11.046;2023-11-19T09:17:38;1.43;;;1.07;;
3359;SDS011;1693;49.602;11.046;2023-11-19T09:20:08;1.70;;;1.10;;
3359;SDS011;1693;49.602;11.046;2023-11-19T09:22:40;1.53;;;1.40;;
3359;SDS011;1693;49.602;11.046;2023-11-19T09:25:08;1.30;;;1.20;;
3359;SDS011;1693;49.602;11.046;2023-11-19T09:27:36;1.60;;;1.20;;
3359;SDS011;1693;49.602;11.046;2023-11-19T09:30:11;1.43;;;1.33;;
3359;SDS011;1693;49.602;11.046;2023-11-19T09:32:39;1.10;;;0.70;;
3359;SDS011;1693;49.602;11.046;2023-11-19T09:35:06;1.10;;;0.97;;
3359;SDS011;1693;49.602;11.046;2023-11-19T09:37:38;1.10;;;1.00;;
3359;SDS011;1693;49.602;11.046;2023-11-19T09:40:06;2.37;;;1.10;;
3359;SDS011;1693;49.602;11.046;2023-11-19T09:42:36;1.20;;;1.10;;
3359;SDS011;1693;49.602;11.046;2023-11-19T09:45:13;3.00;;;1.30;;
3359;SDS011;1693;49.602;11.046;2023-11-19T09:47:42;1.87;;;1.30;;
3359;SDS011;1693;49.602;11.046;2023-11-19T09:50:10;1.23;;;0.80;;
3359;SDS011;1693;49.602;11.046;2023-11-19T09:52:42;1.77;;;1.33;;
3359;SDS011;1693;49.602;11.046;2023-11-19T09:55:11;1.50;;;1.13;;
3359;SDS011;1693;49.602;11.046;2023-11-19T09:57:39;1.27;;;0.90;;
3359;SDS011;1693;49.602;11.046;2023-11-19T10:00:09;1.30;;;0.90;;
3359;SDS011;1693;49.602;11.046;2023-11-19T10:02:41;1.50;;;1.40;;
3359;SDS011;1693;49.602;11.046;2023-11-19T10:05:12;3.83;;;2.50;;
3359;SDS011;1693;49.602;11.046;2023-11-19T10:07:40;2.07;;;1.30;;
3359;SDS011;1693;49.602;11.046;2023-11-19T10:10:08;1.67;;;1.43;;
3359;SDS011;1693;49.602;11.046;2023-11-19T10:12:39;1.57;;;1.47;;
3359;SDS011;1693;49.602;11.046;2023-11-19T10:15:08;1.03;;;0.83;;
3359;SDS011;1693;49.602;11.046;2023-11-19T10:17:46;1.60;;;1.30;;
3359;SDS011;1693;49.602;11.046;2023-11-19T10:20:13;1.13;;;1.03;;
3359;SDS011;1693;49.602;11.046;2023-11-19T10:22:41;1.37;;;1.27;;
3359;SDS011;1693;49.602;11.046;2023-11-19T10:25:20;1.10;;;0.87;;
3359;SDS011;1693;49.602;11.046;2023-11-19T10:27:48;1.50;;;1.40;;
3359;SDS011;1693;49.602;11.046;2023-11-19T10:30:18;1.47;;;1.37;;
3359;SDS011;1693;49.602;11.046;2023-11-19T10:32:58;1.20;;;1.10;;
3359;SDS011;1693;49.602;11.046;2023-11-19T10:35:30;2.30;;;1.47;;
3359;SDS011;1693;49.602;11.046;2023-11-19T10:37:58;1.10;;;0.87;;
3359;SDS011;1693;49.602;11.046;2023-11-19T10:43:08;1.53;;;0.93;;
3359;SDS011;1693;49.602;11.046;2023-11-19T10:45:37;1.83;;;1.00;;
3359;SDS011;1693;49.602;11.046;2023-11-19T10:48:05;3.53;;;1.80;;
3359;SDS011;1693;49.602;11.046;2023-11-19T10:50:33;1.47;;;0.90;;
3359;SDS011;1693;49.602;11.046;2023-11-19T10:53:01;1.10;;;0.80;;
3359;SDS011;1693;49.602;11.046;2023-11-19T10:55:30;1.10;;;0.80;;
3359;SDS011;1693;49.602;11.046;2023-11-19T10:57:59;1.40;;;1.20;;
3359;SDS011;1693;49.602;11.046;2023-11-19T11:00:28;1.00;;;0.80;;
3359;SDS011;1693;49.602;11.046;2023-11-19T11:03:01;0.90;;;0.67;;
3359;SDS011;1693;49.602;11.046;2023-11-19T11:05:32;2.90;;;0.90;;
3359;SDS011;1693;49.602;11.046;2023-11-19T11:08:00;1.47;;;0.80;;
3359;SDS011;1693;49.602;11.046;2023-11-19T11:10:27;2.07;;;1.10;;
3359;SDS011;1693;49.602;11.046;2023-11-19T11:13:00;5.70;;;0.70;;
3359;SDS011;1693;49.602;11.046;2023-11-19T11:15:30;0.90;;;0.60;;
3359;SDS011;1693;49.602;11.046;2023-11-19T11:17:59;1.00;;;0.80;;
3359;SDS011;1693;49.602;11.046;2023-11-19T11:20:28;0.90;;;0.70;;
3359;SDS011;1693;49.602;11.046;2023-11-19T11:23:04;1.00;;;0.70;;
3359;SDS011;1693;49.602;11.046;2023-11-19T11:25:49;1.03;;;0.70;;
3359;SDS011;1693;49.602;11.046;2023-11-19T11:28:26;1.63;;;0.90;;
3359;SDS011;1693;49.602;11.046;2023-11-19T11:31:09;1.20;;;0.77;;
3359;SDS011;1693;49.602;11.046;2023-11-19T11:33:58;1.00;;;0.70;;
3359;SDS011;1693;49.602;11.046;2023-11-19T11:36:35;1.27;;;0.70;;
3359;SDS011;1693;49.602;11.046;2023-11-19T11:39:08;1.30;;;0.80;;
3359;SDS011;1693;49.602;11.046;2023-11-19T11:41:35;1.30;;;1.00;;
3359;SDS011;1693;49.602;11.046;2023-11-19T11:44:03;1.40;;;0.90;;
3359;SDS011;1693;49.602;11.046;2023-11-19T11:49:27;1.00;;;0.70;;
3359;SDS011;1693;49.602;11.046;2023-11-19T11:52:00;1.10;;;0.70;;
3359;SDS011;1693;49.602;11.046;2023-11-19T11:54:28;1.10;;;0.70;;
3359;SDS011;1693;49.602;11.046;2023-11-19T11:57:02;1.00;;;0.70;;
3359;SDS011;1693;49.602;11.046;2023-11-19T11:59:42;1.00;;;0.70;;
3359;SDS011;1693;49.602;11.046;2023-11-19T12:02:12;1.17;;;0.80;;
3359;SDS011;1693;49.602;11.046;2023-11-19T12:04:42;2.30;;;0.70;;
3359;SDS011;1693;49.602;11.046;2023-11-19T12:07:13;1.20;;;0.80;;
3359;SDS011;1693;49.602;11.046;2023-11-19T12:09:42;1.00;;;0.80;;
3359;SDS011;1693;49.602;11.046;2023-11-19T12:12:23;1.30;;;1.00;;
3359;SDS011;1693;49.602;11.046;2023-11-19T12:15:03;2.93;;;1.00;;
3359;SDS011;1693;49.602;11.046;2023-11-19T12:17:42;1.10;;;0.90;;
3359;SDS011;1693;49.602;11.046;2023-11-19T12:20:16;1.70;;;0.87;;
3359;SDS011;1693;49.602;11.046;2023-11-19T12:22:44;1.53;;;1.07;;
3359;SDS011;1693;49.602;11.046;2023-11-19T12:25:14;1.10;;;0.70;;
3359;SDS011;1693;49.602;11.046;2023-11-19T12:27:43;2.70;;;1.27;;
3359;SDS011;1693;49.602;11.046;2023-11-19T12:30:11;1.57;;;0.90;;
3359;SDS011;1693;49.602;11.046;2023-11-19T12:32:43;3.20;;;1.13;;
3359;SDS011;1693;49.602;11.046;2023-11-19T12:35:11;1.10;;;0.80;;
3359;SDS011;1693;49.602;11.046;2023-11-19T12:37:44;0.97;;;0.67;;
3359;SDS011;1693;49.602;11.046;2023-11-19T12:40:12;1.10;;;0.80;;
3359;SDS011;1693;49.602;11.046;2023-11-19T12:42:41;1.10;;;0.80;;
3359;SDS011;1693;49.602;11.046;2023-11-19T12:45:08;1.37;;;0.83;;
3359;SDS011;1693;49.602;11.046;2023-11-19T12:47:53;1.00;;;0.80;;
3359;SDS011;1693;49.602;11.046;2023-11-19T12:50:33;1.10;;;0.90;;
3359;SDS011;1693;49.602;11.046;2023-11-19T12:53:18;1.20;;;1.00;;
3359;SDS011;1693;49.602;11.046;2023-11-19T12:55:45;1.00;;;0.77;;
3359;SDS011;1693;49.602;11.046;2023-11-19T13:00:58;1.63;;;1.10;;
3359;SDS011;1693;49.602;11.046;2023-11-19T13:03:29;1.00;;;0.90;;
3359;SDS011;1693;49.602;11.046;2023-11-19T13:06:02;1.10;;;0.80;;
3359;SDS011;1693;49.602;11.046;2023-11-19T13:08:36;1.53;;;0.80;;
3359;SDS011;1693;49.602;11.046;2023-11-19T13:11:04;1.37;;;0.93;;
3359;SDS011;1693;49.602;11.046;2023-11-19T13:13:33;1.20;;;0.73;;
3359;SDS011;1693;49.602;11.046;2023-11-19T13:16:16;1.10;;;1.00;;
3359;SDS011;1693;49.602;11.046;2023-11-19T13:18:43;1.10;;;0.80;;
3359;SDS011;1693;49.602;11.046;2023-11-19T13:21:11;1.10;;;0.80;;
3359;SDS011;1693;49.602;11.046;2023-11-19T13:23:39;1.00;;;0.80;;
3359;SDS011;1693;49.602;11.046;2023-11-19T13:26:07;1.23;;;0.80;;
3359;SDS011;1693;49.602;11.046;2023-11-19T13:28:34;2.43;;;0.93;;
3359;SDS011;1693;49.602;11.046;2023-11-19T13:31:01;1.10;;;0.80;;
3359;SDS011;1693;49.602;11.046;2023-11-19T13:33:28;1.57;;;0.80;;
3359;SDS011;1693;49.602;11.046;2023-11-19T13:35:56;1.10;;;0.80;;
3359;SDS011;1693;49.602;11.046;2023-11-19T13:38:23;2.83;;;1.10;;
3359;SDS011;1693;49.602;11.046;2023-11-19T13:40:51;1.97;;;1.00;;
3359;SDS011;1693;49.602;11.046;2023-11-19T13:43:18;1.10;;;0.73;;
3359;SDS011;1693;49.602;11.046;2023-11-19T13:45:45;1.00;;;0.77;;
3359;SDS011;1693;49.602;11.046;2023-11-19T13:48:12;1.50;;;0.90;;
3359;SDS011;1693;49.602;11.046;2023-11-19T13:50:39;6.50;;;0.90;;
3359;SDS011;1693;49.602;11.046;2023-11-19T13:53:07;1.30;;;0.80;;
3359;SDS011;1693;49.602;11.046;2023-11-19T13:55:34;1.93;;;1.20;;
3359;SDS011;1693;49.602;11.046;2023-11-19T13:58:02;1.10;;;0.90;;
3359;SDS011;1693;49.602;11.046;2023-11-19T14:00:29;2.53;;;1.23;;
3359;SDS011;1693;49.602;11.046;2023-11-19T14:02:56;1.10;;;0.80;;
3359;SDS011;1693;49.602;11.046;2023-11-19T14:05:24;1.33;;;0.83;;
3359;SDS011;1693;49.602;11.046;2023-11-19T14:07:51;1.33;;;1.10;;
3359;SDS011;1693;49.602;11.046;2023-11-19T14:10:21;1.20;;;1.00;;
3359;SDS011;1693;49.602;11.046;2023-11-19T14:12:48;1.20;;;0.80;;
3359;SDS011;1693;49.602;11.046;2023-11-19T14:15:17;1.10;;;0.80;;
3359;SDS011;1693;49.602;11.046;2023-11-19T14:17:44;1.00;;;0.67;;
3359;SDS011;1693;49.602;11.046;2023-11-19T14:20:12;1.00;;;0.80;;
3359;SDS011;1693;49.602;11.046;2023-11-19T14:22:41;1.70;;;1.10;;
3359;SDS011;1693;49.602;11.046;2023-11-19T14:25:08;1.10;;;0.70;;
3359;SDS011;1693;49.602;11.046;2023-11-19T14:27:36;1.07;;;0.80;;
3359;SDS011;1693;49.602;11.046;2023-11-19T14:30:04;3.00;;;1.00;;
3359;SDS011;1693;49.602;11.046;2023-11-19T14:32:33;1.00;;;0.70;;
3359;SDS011;1693;49.602;11.046;2023-11-19T14:35:01;1.00;;;0.70;;
3359;SDS011;1693;49.602;11.046;2023-11-19T14:37:29;1.07;;;0.80;;
3359;SDS011;1693;49.602;11.046;2023-11-19T14:39:57;1.00;;;0.90;;
3359;SDS011;1693;49.602;11.046;2023-11-19T14:42:24;1.87;;;1.00;;
3359;SDS011;1693;49.602;11.046;2023-11-19T14:44:51;1.20;;;0.87;;
3359;SDS011;1693;49.602;11.046;2023-11-19T14:47:19;1.83;;;1.30;;
3359;SDS011;1693;49.602;11.046;2023-11-19T14:49:47;1.37;;;1.00;;
3359;SDS011;1693;49.602;11.046;2023-11-19T14:52:15;1.10;;;0.80;;
3359;SDS011;1693;49.602;11.046;2023-11-19T14:54:42;1.30;;;0.80;;
3359;SDS011;1693;49.602;11.046;2023-11-19T14:57:12;1.20;;;0.80;;
3359;SDS011;1693;49.602;11.046;2023-11-19T14:59:39;1.53;;;1.13;;
3359;SDS011;1693;49.602;11.046;2023-11-19T15:02:07;1.50;;;1.40;;
3359;SDS011;1693;49.602;11.046;2023-11-19T15:04:35;1.37;;;1.07;;
3359;SDS011;1693;49.602;11.046;2023-11-19T15:07:04;1.00;;;0.73;;
3359;SDS011;1693;49.602;11.046;2023-11-19T15:09:31;1.07;;;0.70;;
3359;SDS011;1693;49.602;11.046;2023-11-19T15:11:58;1.77;;;1.20;;
3359;SDS011;1693;49.602;11.046;2023-11-19T15:14:27;1.40;;;1.23;;
3359;SDS011;1693;49.602;11.046;2023-11-19T15:16:55;3.43;;;2.70;;
3359;SDS011;1693;49.602;11.046;2023-11-19T15:19:23;1.53;;;1.03;;
3359;SDS011;1693;49.602;11.046;2023-11-19T15:21:50;2.57;;;1.23;;
3359;SDS011;1693;49.602;11.046;2023-11-19T15:24:18;1.53;;;1.30;;